Terminal Aerodrome Forecast
Issued by NWS

Current Version | Previous Version | Text Only | Print | Product List | Glossary On
Versions: 1 2 3 4 5 6 7 8 9 10 11 12 13 14 15 16 17 18 19 20 21 22 23 24
000
FTUS41 KCAR 301120
TAFPQI
TAF
KPQI 301120Z 3012/0112 31009G16KT P6SM SCT040
     FM301400 33009KT P6SM FEW045
     FM302100 33005KT P6SM BKN250
     FM010200 VRB03KT P6SM BKN110 OVC200
     FM010730 VRB03KT P6SM -RA OVC070
     FM011030 12005KT 5SM -RA OVC030=

USA.gov is the U.S. government's official web portal to all federal, state and local government web resources and services.